sensor_id;sensor_type;location;lat;lon;timestamp;temperature;humidity
41928;DHT22;27616;51.420;6.788;2023-03-19T00:01:27;10.70;99.90
41928;DHT22;27616;51.420;6.788;2023-03-19T00:03:53;10.60;99.90
41928;DHT22;27616;51.420;6.788;2023-03-19T00:06:19;10.60;99.90
41928;DHT22;27616;51.420;6.788;2023-03-19T00:08:44;10.60;99.90
41928;DHT22;27616;51.420;6.788;2023-03-19T00:11:11;10.60;99.90
41928;DHT22;27616;51.420;6.788;2023-03-19T00:13:38;10.60;99.90
41928;DHT22;27616;51.420;6.788;2023-03-19T00:16:05;10.60;99.90
41928;DHT22;27616;51.420;6.788;2023-03-19T00:18:31;10.60;99.90
41928;DHT22;27616;51.420;6.788;2023-03-19T00:20:58;10.70;99.90
41928;DHT22;27616;51.420;6.788;2023-03-19T00:23:23;10.70;99.90
41928;DHT22;27616;51.420;6.788;2023-03-19T00:25:49;10.70;99.90
41928;DHT22;27616;51.420;6.788;2023-03-19T00:28:15;10.70;99.90
41928;DHT22;27616;51.420;6.788;2023-03-19T00:30:41;10.70;99.90
41928;DHT22;27616;51.420;6.788;2023-03-19T00:33:09;10.70;99.90
41928;DHT22;27616;51.420;6.788;2023-03-19T00:35:35;10.80;99.90
41928;DHT22;27616;51.420;6.788;2023-03-19T00:38:01;10.60;99.90
41928;DHT22;27616;51.420;6.788;2023-03-19T00:40:29;10.60;99.90
41928;DHT22;27616;51.420;6.788;2023-03-19T00:42:55;10.50;99.90
41928;DHT22;27616;51.420;6.788;2023-03-19T00:45:20;10.50;99.90
41928;DHT22;27616;51.420;6.788;2023-03-19T00:47:46;10.40;99.90
41928;DHT22;27616;51.420;6.788;2023-03-19T00:50:12;10.40;99.90
41928;DHT22;27616;51.420;6.788;2023-03-19T00:52:38;10.40;99.90
41928;DHT22;27616;51.420;6.788;2023-03-19T00:55:04;10.40;99.90
41928;DHT22;27616;51.420;6.788;2023-03-19T00:57:30;10.40;99.90
41928;DHT22;27616;51.420;6.788;2023-03-19T00:59:55;10.30;99.90
41928;DHT22;27616;51.420;6.788;2023-03-19T01:02:21;10.30;99.90
41928;DHT22;27616;51.420;6.788;2023-03-19T01:04:47;10.20;99.90
41928;DHT22;27616;51.420;6.788;2023-03-19T01:07:13;10.10;99.90
41928;DHT22;27616;51.420;6.788;2023-03-19T01:09:40;10.10;99.90
41928;DHT22;27616;51.420;6.788;2023-03-19T01:12:06;10.00;99.90
41928;DHT22;27616;51.420;6.788;2023-03-19T01:14:32;9.90;99.90
41928;DHT22;27616;51.420;6.788;2023-03-19T01:16:59;9.90;99.90
41928;DHT22;27616;51.420;6.788;2023-03-19T01:19:25;9.90;99.90
41928;DHT22;27616;51.420;6.788;2023-03-19T01:21:51;9.80;99.90
41928;DHT22;27616;51.420;6.788;2023-03-19T01:24:20;9.90;99.90
41928;DHT22;27616;51.420;6.788;2023-03-19T01:26:51;9.90;99.90
41928;DHT22;27616;51.420;6.788;2023-03-19T01:29:29;9.80;99.90
41928;DHT22;27616;51.420;6.788;2023-03-19T01:31:57;9.80;99.90
41928;DHT22;27616;51.420;6.788;2023-03-19T01:34:33;9.90;99.90
41928;DHT22;27616;51.420;6.788;2023-03-19T01:37:07;9.80;99.90
41928;DHT22;27616;51.420;6.788;2023-03-19T01:39:33;9.80;99.90
41928;DHT22;27616;51.420;6.788;2023-03-19T01:42:03;9.80;99.90
41928;DHT22;27616;51.420;6.788;2023-03-19T01:44:37;9.80;99.90
41928;DHT22;27616;51.420;6.788;2023-03-19T01:47:38;9.70;99.90
41928;DHT22;27616;51.420;6.788;2023-03-19T01:50:26;9.70;99.90
41928;DHT22;27616;51.420;6.788;2023-03-19T01:53:17;9.70;99.90
41928;DHT22;27616;51.420;6.788;2023-03-19T01:55:48;9.60;99.90
41928;DHT22;27616;51.420;6.788;2023-03-19T01:58:26;9.70;99.90
41928;DHT22;27616;51.420;6.788;2023-03-19T02:01:06;9.60;99.90
41928;DHT22;27616;51.420;6.788;2023-03-19T02:03:36;9.70;99.90
41928;DHT22;27616;51.420;6.788;2023-03-19T02:06:23;9.70;99.90
41928;DHT22;27616;51.420;6.788;2023-03-19T02:08:50;9.80;99.90
41928;DHT22;27616;51.420;6.788;2023-03-19T02:11:17;9.80;99.90
41928;DHT22;27616;51.420;6.788;2023-03-19T02:13:44;9.80;99.90
41928;DHT22;27616;51.420;6.788;2023-03-19T02:16:10;9.90;99.90
41928;DHT22;27616;51.420;6.788;2023-03-19T02:18:37;9.90;99.90
41928;DHT22;27616;51.420;6.788;2023-03-19T02:21:24;9.90;99.90
41928;DHT22;27616;51.420;6.788;2023-03-19T02:24:16;9.90;99.90
41928;DHT22;27616;51.420;6.788;2023-03-19T02:27:00;10.00;99.90
41928;DHT22;27616;51.420;6.788;2023-03-19T02:29:26;10.00;99.90
41928;DHT22;27616;51.420;6.788;2023-03-19T02:31:55;10.00;99.90
41928;DHT22;27616;51.420;6.788;2023-03-19T02:36:51;10.10;99.90
41928;DHT22;27616;51.420;6.788;2023-03-19T02:41:53;10.10;99.90
41928;DHT22;27616;51.420;6.788;2023-03-19T02:44:21;10.00;99.90
41928;DHT22;27616;51.420;6.788;2023-03-19T02:46:49;10.00;99.90
41928;DHT22;27616;51.420;6.788;2023-03-19T02:49:15;10.00;99.90
41928;DHT22;27616;51.420;6.788;2023-03-19T02:51:40;9.90;99.90
41928;DHT22;27616;51.420;6.788;2023-03-19T02:54:06;9.90;99.90
41928;DHT22;27616;51.420;6.788;2023-03-19T02:56:32;9.90;99.90
41928;DHT22;27616;51.420;6.788;2023-03-19T02:58:58;9.90;99.90
41928;DHT22;27616;51.420;6.788;2023-03-19T03:01:24;9.90;99.90
41928;DHT22;27616;51.420;6.788;2023-03-19T03:03:50;10.00;99.90
41928;DHT22;27616;51.420;6.788;2023-03-19T03:06:16;10.00;99.90
41928;DHT22;27616;51.420;6.788;2023-03-19T03:08:42;9.90;99.90
41928;DHT22;27616;51.420;6.788;2023-03-19T03:11:08;10.00;99.90
41928;DHT22;27616;51.420;6.788;2023-03-19T03:13:34;10.00;99.90
41928;DHT22;27616;51.420;6.788;2023-03-19T03:16:01;10.00;99.90
41928;DHT22;27616;51.420;6.788;2023-03-19T03:18:27;10.00;99.90
41928;DHT22;27616;51.420;6.788;2023-03-19T03:20:53;10.00;99.90
41928;DHT22;27616;51.420;6.788;2023-03-19T03:23:19;10.00;99.90
41928;DHT22;27616;51.420;6.788;2023-03-19T03:25:50;10.00;99.90
41928;DHT22;27616;51.420;6.788;2023-03-19T03:28:17;10.00;99.90
41928;DHT22;27616;51.420;6.788;2023-03-19T03:30:44;10.00;99.90
41928;DHT22;27616;51.420;6.788;2023-03-19T03:33:10;10.00;99.90
41928;DHT22;27616;51.420;6.788;2023-03-19T03:35:35;10.00;99.90
41928;DHT22;27616;51.420;6.788;2023-03-19T03:38:01;10.00;99.90
41928;DHT22;27616;51.420;6.788;2023-03-19T03:40:28;10.10;99.90
41928;DHT22;27616;51.420;6.788;2023-03-19T03:42:54;10.10;99.90
41928;DHT22;27616;51.420;6.788;2023-03-19T03:45:21;10.10;99.90
41928;DHT22;27616;51.420;6.788;2023-03-19T03:47:48;10.00;99.90
41928;DHT22;27616;51.420;6.788;2023-03-19T03:50:15;10.00;99.90
41928;DHT22;27616;51.420;6.788;2023-03-19T03:52:41;10.00;99.90
41928;DHT22;27616;51.420;6.788;2023-03-19T03:55:07;10.00;99.90
41928;DHT22;27616;51.420;6.788;2023-03-19T03:57:34;10.00;99.90
41928;DHT22;27616;51.420;6.788;2023-03-19T03:59:59;10.00;99.90
41928;DHT22;27616;51.420;6.788;2023-03-19T04:02:25;10.00;99.90
41928;DHT22;27616;51.420;6.788;2023-03-19T04:04:53;10.00;99.90
41928;DHT22;27616;51.420;6.788;2023-03-19T04:07:19;10.00;99.90
41928;DHT22;27616;51.420;6.788;2023-03-19T04:09:50;10.00;99.90
41928;DHT22;27616;51.420;6.788;2023-03-19T04:12:16;10.00;99.90
41928;DHT22;27616;51.420;6.788;2023-03-19T04:14:42;10.10;99.90
41928;DHT22;27616;51.420;6.788;2023-03-19T04:17:08;10.20;99.90
41928;DHT22;27616;51.420;6.788;2023-03-19T04:19:34;10.20;99.90
41928;DHT22;27616;51.420;6.788;2023-03-19T04:22:00;10.20;99.90
41928;DHT22;27616;51.420;6.788;2023-03-19T04:24:28;10.20;99.90
41928;DHT22;27616;51.420;6.788;2023-03-19T04:26:56;10.20;99.90
41928;DHT22;27616;51.420;6.788;2023-03-19T04:29:22;10.20;99.90
41928;DHT22;27616;51.420;6.788;2023-03-19T04:31:49;10.30;99.90
41928;DHT22;27616;51.420;6.788;2023-03-19T04:34:15;10.30;99.90
41928;DHT22;27616;51.420;6.788;2023-03-19T04:36:42;10.30;99.90
41928;DHT22;27616;51.420;6.788;2023-03-19T04:39:08;10.30;99.90
41928;DHT22;27616;51.420;6.788;2023-03-19T04:41:35;10.30;99.90
41928;DHT22;27616;51.420;6.788;2023-03-19T04:44:21;10.40;99.90
41928;DHT22;27616;51.420;6.788;2023-03-19T04:46:47;10.40;99.90
41928;DHT22;27616;51.420;6.788;2023-03-19T04:49:15;10.50;99.90
41928;DHT22;27616;51.420;6.788;2023-03-19T04:51:41;10.50;99.90
41928;DHT22;27616;51.420;6.788;2023-03-19T04:54:07;10.50;99.90
41928;DHT22;27616;51.420;6.788;2023-03-19T04:56:33;10.40;99.90
41928;DHT22;27616;51.420;6.788;2023-03-19T04:58:59;10.50;99.90
41928;DHT22;27616;51.420;6.788;2023-03-19T05:01:25;10.50;99.90
41928;DHT22;27616;51.420;6.788;2023-03-19T05:04:06;10.50;99.90
41928;DHT22;27616;51.420;6.788;2023-03-19T05:06:34;10.50;99.90
41928;DHT22;27616;51.420;6.788;2023-03-19T05:09:01;10.60;99.90
41928;DHT22;27616;51.420;6.788;2023-03-19T05:11:27;10.60;99.90
41928;DHT22;27616;51.420;6.788;2023-03-19T05:14:04;10.60;99.90
41928;DHT22;27616;51.420;6.788;2023-03-19T05:16:42;10.70;99.90
41928;DHT22;27616;51.420;6.788;2023-03-19T05:19:07;10.80;99.90
41928;DHT22;27616;51.420;6.788;2023-03-19T05:21:34;10.70;99.90
41928;DHT22;27616;51.420;6.788;2023-03-19T05:24:00;10.70;99.90
41928;DHT22;27616;51.420;6.788;2023-03-19T05:26:28;10.70;99.90
41928;DHT22;27616;51.420;6.788;2023-03-19T05:29:20;10.70;99.90
41928;DHT22;27616;51.420;6.788;2023-03-19T05:32:00;10.60;99.90
41928;DHT22;27616;51.420;6.788;2023-03-19T05:34:29;10.60;99.90
41928;DHT22;27616;51.420;6.788;2023-03-19T05:36:55;10.70;99.90
41928;DHT22;27616;51.420;6.788;2023-03-19T05:39:22;10.80;99.90
41928;DHT22;27616;51.420;6.788;2023-03-19T05:41:49;10.80;99.90
41928;DHT22;27616;51.420;6.788;2023-03-19T05:44:19;10.80;99.90
41928;DHT22;27616;51.420;6.788;2023-03-19T05:47:03;10.90;99.90
41928;DHT22;27616;51.420;6.788;2023-03-19T05:49:32;10.90;99.90
41928;DHT22;27616;51.420;6.788;2023-03-19T05:51:58;10.90;99.90
41928;DHT22;27616;51.420;6.788;2023-03-19T05:54:23;10.90;99.90
41928;DHT22;27616;51.420;6.788;2023-03-19T05:57:19;10.80;99.90
41928;DHT22;27616;51.420;6.788;2023-03-19T05:59:49;10.60;99.90
41928;DHT22;27616;51.420;6.788;2023-03-19T06:02:28;10.60;99.90
41928;DHT22;27616;51.420;6.788;2023-03-19T06:05:09;10.60;99.90
41928;DHT22;27616;51.420;6.788;2023-03-19T06:07:37;10.50;99.90
41928;DHT22;27616;51.420;6.788;2023-03-19T06:10:06;10.40;99.90
41928;DHT22;27616;51.420;6.788;2023-03-19T06:12:32;10.40;99.90
41928;DHT22;27616;51.420;6.788;2023-03-19T06:15:26;10.30;99.90
41928;DHT22;27616;51.420;6.788;2023-03-19T06:18:11;10.30;99.90
41928;DHT22;27616;51.420;6.788;2023-03-19T06:20:36;10.30;99.90
41928;DHT22;27616;51.420;6.788;2023-03-19T06:23:02;10.30;99.90
41928;DHT22;27616;51.420;6.788;2023-03-19T06:25:28;10.30;99.90
41928;DHT22;27616;51.420;6.788;2023-03-19T06:27:54;10.20;99.90
41928;DHT22;27616;51.420;6.788;2023-03-19T06:30:37;10.30;99.90
41928;DHT22;27616;51.420;6.788;2023-03-19T06:33:09;10.30;99.90
41928;DHT22;27616;51.420;6.788;2023-03-19T06:35:35;10.30;99.90
41928;DHT22;27616;51.420;6.788;2023-03-19T06:38:01;10.30;99.90
41928;DHT22;27616;51.420;6.788;2023-03-19T06:40:27;10.30;99.90
41928;DHT22;27616;51.420;6.788;2023-03-19T06:42:52;10.30;99.90
41928;DHT22;27616;51.420;6.788;2023-03-19T06:45:18;10.30;99.90
41928;DHT22;27616;51.420;6.788;2023-03-19T06:47:45;10.30;99.90
41928;DHT22;27616;51.420;6.788;2023-03-19T06:50:13;10.30;99.90
41928;DHT22;27616;51.420;6.788;2023-03-19T06:52:39;10.40;99.90
41928;DHT22;27616;51.420;6.788;2023-03-19T06:55:06;10.40;99.90
41928;DHT22;27616;51.420;6.788;2023-03-19T06:57:33;10.40;99.90
41928;DHT22;27616;51.420;6.788;2023-03-19T06:59:58;10.50;99.90
41928;DHT22;27616;51.420;6.788;2023-03-19T07:02:24;10.40;99.90
41928;DHT22;27616;51.420;6.788;2023-03-19T07:04:51;10.40;99.90
41928;DHT22;27616;51.420;6.788;2023-03-19T07:07:17;10.40;99.90
41928;DHT22;27616;51.420;6.788;2023-03-19T07:09:43;10.50;99.90
41928;DHT22;27616;51.420;6.788;2023-03-19T07:12:09;10.40;99.90
41928;DHT22;27616;51.420;6.788;2023-03-19T07:14:35;10.50;99.90
41928;DHT22;27616;51.420;6.788;2023-03-19T07:17:00;10.60;99.90
41928;DHT22;27616;51.420;6.788;2023-03-19T07:19:26;10.60;99.90
41928;DHT22;27616;51.420;6.788;2023-03-19T07:21:52;10.60;99.90
41928;DHT22;27616;51.420;6.788;2023-03-19T07:24:17;10.70;99.90
41928;DHT22;27616;51.420;6.788;2023-03-19T07:26:43;10.70;99.90
41928;DHT22;27616;51.420;6.788;2023-03-19T07:29:09;10.80;99.90
41928;DHT22;27616;51.420;6.788;2023-03-19T07:31:35;10.90;99.90
41928;DHT22;27616;51.420;6.788;2023-03-19T07:34:01;10.90;99.90
41928;DHT22;27616;51.420;6.788;2023-03-19T07:36:27;10.90;99.90
41928;DHT22;27616;51.420;6.788;2023-03-19T07:38:53;10.90;99.90
41928;DHT22;27616;51.420;6.788;2023-03-19T07:41:18;10.90;99.90
41928;DHT22;27616;51.420;6.788;2023-03-19T07:43:44;10.90;99.90
41928;DHT22;27616;51.420;6.788;2023-03-19T07:46:10;11.00;99.90
41928;DHT22;27616;51.420;6.788;2023-03-19T07:48:36;11.00;99.90
41928;DHT22;27616;51.420;6.788;2023-03-19T07:51:02;11.10;99.90
41928;DHT22;27616;51.420;6.788;2023-03-19T07:53:28;11.10;99.90
41928;DHT22;27616;51.420;6.788;2023-03-19T07:55:53;11.20;99.90
41928;DHT22;27616;51.420;6.788;2023-03-19T07:58:19;11.20;99.90
41928;DHT22;27616;51.420;6.788;2023-03-19T08:00:45;11.20;99.90
41928;DHT22;27616;51.420;6.788;2023-03-19T08:03:11;11.20;99.90
41928;DHT22;27616;51.420;6.788;2023-03-19T08:05:37;11.30;99.90
41928;DHT22;27616;51.420;6.788;2023-03-19T08:08:03;11.20;99.90
41928;DHT22;27616;51.420;6.788;2023-03-19T08:10:28;11.30;99.90
41928;DHT22;27616;51.420;6.788;2023-03-19T08:12:54;11.30;99.90
41928;DHT22;27616;51.420;6.788;2023-03-19T08:15:20;11.40;99.90
41928;DHT22;27616;51.420;6.788;2023-03-19T08:17:46;11.50;99.90
41928;DHT22;27616;51.420;6.788;2023-03-19T08:20:14;11.50;99.90
41928;DHT22;27616;51.420;6.788;2023-03-19T08:22:42;11.50;99.90
41928;DHT22;27616;51.420;6.788;2023-03-19T08:25:09;11.60;99.90
41928;DHT22;27616;51.420;6.788;2023-03-19T08:27:35;11.60;99.90
41928;DHT22;27616;51.420;6.788;2023-03-19T08:30:06;11.60;99.90
41928;DHT22;27616;51.420;6.788;2023-03-19T08:32:32;11.60;99.90
41928;DHT22;27616;51.420;6.788;2023-03-19T08:34:57;11.60;99.90
41928;DHT22;27616;51.420;6.788;2023-03-19T08:37:23;11.80;99.90
41928;DHT22;27616;51.420;6.788;2023-03-19T08:39:50;11.90;99.90
41928;DHT22;27616;51.420;6.788;2023-03-19T08:42:19;12.10;99.90
41928;DHT22;27616;51.420;6.788;2023-03-19T08:44:46;12.30;99.90
41928;DHT22;27616;51.420;6.788;2023-03-19T08:47:12;12.40;99.90
41928;DHT22;27616;51.420;6.788;2023-03-19T08:49:37;12.50;99.90
41928;DHT22;27616;51.420;6.788;2023-03-19T08:52:04;12.70;99.90
41928;DHT22;27616;51.420;6.788;2023-03-19T08:54:31;12.80;99.90
41928;DHT22;27616;51.420;6.788;2023-03-19T08:56:58;13.00;99.90
41928;DHT22;27616;51.420;6.788;2023-03-19T08:59:25;13.10;99.90
41928;DHT22;27616;51.420;6.788;2023-03-19T09:01:51;13.30;99.90
41928;DHT22;27616;51.420;6.788;2023-03-19T09:04:18;13.30;99.90
41928;DHT22;27616;51.420;6.788;2023-03-19T09:06:44;13.40;99.90
41928;DHT22;27616;51.420;6.788;2023-03-19T09:09:10;13.40;99.90
41928;DHT22;27616;51.420;6.788;2023-03-19T09:11:35;13.50;99.90
41928;DHT22;27616;51.420;6.788;2023-03-19T09:14:01;13.60;99.90
41928;DHT22;27616;51.420;6.788;2023-03-19T09:16:27;13.70;99.90
41928;DHT22;27616;51.420;6.788;2023-03-19T09:18:53;13.80;99.90
41928;DHT22;27616;51.420;6.788;2023-03-19T09:21:18;13.80;99.90
41928;DHT22;27616;51.420;6.788;2023-03-19T09:23:44;13.90;99.90
41928;DHT22;27616;51.420;6.788;2023-03-19T09:26:10;13.90;99.90
41928;DHT22;27616;51.420;6.788;2023-03-19T09:28:36;13.90;99.90
41928;DHT22;27616;51.420;6.788;2023-03-19T09:31:02;13.70;99.90
41928;DHT22;27616;51.420;6.788;2023-03-19T09:33:32;13.70;99.90
41928;DHT22;27616;51.420;6.788;2023-03-19T09:35:57;13.60;99.90
41928;DHT22;27616;51.420;6.788;2023-03-19T09:38:23;13.70;99.90
41928;DHT22;27616;51.420;6.788;2023-03-19T09:41:17;14.00;99.90
41928;DHT22;27616;51.420;6.788;2023-03-19T09:44:09;14.00;99.90
41928;DHT22;27616;51.420;6.788;2023-03-19T09:49:42;14.20;99.90
41928;DHT22;27616;51.420;6.788;2023-03-19T09:57:49;13.90;99.90
41928;DHT22;27616;51.420;6.788;2023-03-19T10:00:19;13.80;99.90
41928;DHT22;27616;51.420;6.788;2023-03-19T10:02:46;13.70;99.90
41928;DHT22;27616;51.420;6.788;2023-03-19T10:05:30;13.60;99.90
41928;DHT22;27616;51.420;6.788;2023-03-19T10:15:55;13.40;99.90
41928;DHT22;27616;51.420;6.788;2023-03-19T10:18:34;13.40;99.90
41928;DHT22;27616;51.420;6.788;2023-03-19T10:21:12;13.50;99.90
41928;DHT22;27616;51.420;6.788;2023-03-19T10:23:44;13.50;99.90
41928;DHT22;27616;51.420;6.788;2023-03-19T10:26:18;13.50;99.90
41928;DHT22;27616;51.420;6.788;2023-03-19T10:28:50;13.50;99.90
41928;DHT22;27616;51.420;6.788;2023-03-19T10:31:26;13.30;99.90
41928;DHT22;27616;51.420;6.788;2023-03-19T10:36:37;13.00;99.90
41928;DHT22;27616;51.420;6.788;2023-03-19T10:39:04;12.90;99.90
41928;DHT22;27616;51.420;6.788;2023-03-19T10:46:50;12.40;99.90
41928;DHT22;27616;51.420;6.788;2023-03-19T10:49:15;12.30;99.90
41928;DHT22;27616;51.420;6.788;2023-03-19T10:51:45;12.20;99.90
41928;DHT22;27616;51.420;6.788;2023-03-19T10:54:37;12.20;99.90
41928;DHT22;27616;51.420;6.788;2023-03-19T10:57:04;12.20;99.90
41928;DHT22;27616;51.420;6.788;2023-03-19T10:59:32;12.10;99.90
41928;DHT22;27616;51.420;6.788;2023-03-19T11:02:13;12.10;99.90
41928;DHT22;27616;51.420;6.788;2023-03-19T11:04:40;12.10;99.90
41928;DHT22;27616;51.420;6.788;2023-03-19T11:07:10;12.00;99.90
41928;DHT22;27616;51.420;6.788;2023-03-19T11:09:43;12.00;99.90
41928;DHT22;27616;51.420;6.788;2023-03-19T11:12:20;11.90;99.90
41928;DHT22;27616;51.420;6.788;2023-03-19T11:14:50;12.00;99.90
41928;DHT22;27616;51.420;6.788;2023-03-19T11:20:18;12.30;99.90
41928;DHT22;27616;51.420;6.788;2023-03-19T11:22:46;12.40;99.90
41928;DHT22;27616;51.420;6.788;2023-03-19T11:25:22;12.50;99.90
41928;DHT22;27616;51.420;6.788;2023-03-19T11:28:04;12.70;99.90
41928;DHT22;27616;51.420;6.788;2023-03-19T11:30:40;12.80;99.90
41928;DHT22;27616;51.420;6.788;2023-03-19T11:38:38;12.90;99.90
41928;DHT22;27616;51.420;6.788;2023-03-19T11:41:43;12.80;99.90
41928;DHT22;27616;51.420;6.788;2023-03-19T11:44:32;12.70;99.90
41928;DHT22;27616;51.420;6.788;2023-03-19T11:57:21;13.40;99.90
41928;DHT22;27616;51.420;6.788;2023-03-19T12:00:05;13.40;99.90
41928;DHT22;27616;51.420;6.788;2023-03-19T12:02:52;13.40;99.90
41928;DHT22;27616;51.420;6.788;2023-03-19T12:05:45;13.50;99.90
41928;DHT22;27616;51.420;6.788;2023-03-19T12:21:19;13.90;99.90
41928;DHT22;27616;51.420;6.788;2023-03-19T12:24:05;14.10;99.90
41928;DHT22;27616;51.420;6.788;2023-03-19T12:35:11;15.60;99.90
41928;DHT22;27616;51.420;6.788;2023-03-19T12:37:45;16.00;99.90
41928;DHT22;27616;51.420;6.788;2023-03-19T12:40:24;16.00;99.90
41928;DHT22;27616;51.420;6.788;2023-03-19T12:42:56;16.00;99.90
41928;DHT22;27616;51.420;6.788;2023-03-19T12:45:44;16.10;99.90
41928;DHT22;27616;51.420;6.788;2023-03-19T12:48:16;16.40;99.90
41928;DHT22;27616;51.420;6.788;2023-03-19T12:50:48;16.50;99.90
41928;DHT22;27616;51.420;6.788;2023-03-19T12:55:57;16.30;99.90
41928;DHT22;27616;51.420;6.788;2023-03-19T13:01:04;16.00;99.90
41928;DHT22;27616;51.420;6.788;2023-03-19T13:09:00;16.20;99.90
41928;DHT22;27616;51.420;6.788;2023-03-19T13:14:46;16.50;99.90
41928;DHT22;27616;51.420;6.788;2023-03-19T13:17:39;16.50;99.90
41928;DHT22;27616;51.420;6.788;2023-03-19T13:23:03;16.50;99.90
41928;DHT22;27616;51.420;6.788;2023-03-19T13:25:40;16.50;99.90
41928;DHT22;27616;51.420;6.788;2023-03-19T13:28:17;16.60;99.90
41928;DHT22;27616;51.420;6.788;2023-03-19T13:31:02;16.90;99.90
41928;DHT22;27616;51.420;6.788;2023-03-19T13:33:29;16.80;99.90
41928;DHT22;27616;51.420;6.788;2023-03-19T13:35:56;16.80;99.90
41928;DHT22;27616;51.420;6.788;2023-03-19T13:38:47;16.80;99.90
41928;DHT22;27616;51.420;6.788;2023-03-19T13:46:51;16.20;99.90
41928;DHT22;27616;51.420;6.788;2023-03-19T13:49:26;16.10;99.90
41928;DHT22;27616;51.420;6.788;2023-03-19T13:54:40;15.60;99.90
41928;DHT22;27616;51.420;6.788;2023-03-19T13:59:40;15.30;99.90
41928;DHT22;27616;51.420;6.788;2023-03-19T14:04:59;15.20;99.90
41928;DHT22;27616;51.420;6.788;2023-03-19T14:07:37;15.20;99.90
41928;DHT22;27616;51.420;6.788;2023-03-19T14:12:43;15.00;99.90
41928;DHT22;27616;51.420;6.788;2023-03-19T14:17:37;15.00;99.90
41928;DHT22;27616;51.420;6.788;2023-03-19T14:20:31;14.80;99.90
41928;DHT22;27616;51.420;6.788;2023-03-19T14:23:20;14.70;99.90
41928;DHT22;27616;51.420;6.788;2023-03-19T14:28:37;14.70;99.90
41928;DHT22;27616;51.420;6.788;2023-03-19T14:31:05;14.60;99.90
41928;DHT22;27616;51.420;6.788;2023-03-19T14:36:19;14.60;99.90
41928;DHT22;27616;51.420;6.788;2023-03-19T14:38:59;14.60;99.90
41928;DHT22;27616;51.420;6.788;2023-03-19T14:41:30;14.60;99.90
41928;DHT22;27616;51.420;6.788;2023-03-19T14:47:03;14.60;99.90
41928;DHT22;27616;51.420;6.788;2023-03-19T14:52:37;14.60;99.90
41928;DHT22;27616;51.420;6.788;2023-03-19T14:55:09;14.60;99.90
41928;DHT22;27616;51.420;6.788;2023-03-19T14:57:35;14.60;99.90
41928;DHT22;27616;51.420;6.788;2023-03-19T15:00:04;14.60;99.90
41928;DHT22;27616;51.420;6.788;2023-03-19T15:02:55;14.60;99.90
41928;DHT22;27616;51.420;6.788;2023-03-19T15:05:24;14.60;99.90
41928;DHT22;27616;51.420;6.788;2023-03-19T15:07:54;14.70;99.90
41928;DHT22;27616;51.420;6.788;2023-03-19T15:10:23;14.60;99.90
41928;DHT22;27616;51.420;6.788;2023-03-19T15:18:48;14.60;99.90
41928;DHT22;27616;51.420;6.788;2023-03-19T15:21:15;14.60;99.90
41928;DHT22;27616;51.420;6.788;2023-03-19T15:23:44;14.70;99.90
41928;DHT22;27616;51.420;6.788;2023-03-19T15:26:11;14.60;99.90
41928;DHT22;27616;51.420;6.788;2023-03-19T15:28:49;14.60;99.90
41928;DHT22;27616;51.420;6.788;2023-03-19T15:31:16;14.60;99.90
41928;DHT22;27616;51.420;6.788;2023-03-19T15:33:42;14.60;99.90
41928;DHT22;27616;51.420;6.788;2023-03-19T15:36:22;14.60;99.90
41928;DHT22;27616;51.420;6.788;2023-03-19T15:38:54;14.70;99.90
41928;DHT22;27616;51.420;6.788;2023-03-19T15:41:24;14.70;99.90
41928;DHT22;27616;51.420;6.788;2023-03-19T15:43:50;14.80;99.90
41928;DHT22;27616;51.420;6.788;2023-03-19T15:46:20;14.80;99.90
41928;DHT22;27616;51.420;6.788;2023-03-19T15:49:15;14.80;99.90
41928;DHT22;27616;51.420;6.788;2023-03-19T15:51:44;14.80;99.90
41928;DHT22;27616;51.420;6.788;2023-03-19T15:54:11;14.90;99.90
41928;DHT22;27616;51.420;6.788;2023-03-19T15:56:37;14.90;99.90
41928;DHT22;27616;51.420;6.788;2023-03-19T15:59:03;14.90;99.90
41928;DHT22;27616;51.420;6.788;2023-03-19T16:01:30;14.80;99.90
41928;DHT22;27616;51.420;6.788;2023-03-19T16:04:06;14.80;99.90
41928;DHT22;27616;51.420;6.788;2023-03-19T16:06:36;14.80;99.90
41928;DHT22;27616;51.420;6.788;2023-03-19T16:09:25;14.80;99.90
41928;DHT22;27616;51.420;6.788;2023-03-19T16:11:52;14.80;99.90
41928;DHT22;27616;51.420;6.788;2023-03-19T16:14:25;14.80;99.90
41928;DHT22;27616;51.420;6.788;2023-03-19T16:17:02;14.70;99.90
41928;DHT22;27616;51.420;6.788;2023-03-19T16:19:36;14.70;99.90
41928;DHT22;27616;51.420;6.788;2023-03-19T16:22:11;14.70;99.90
41928;DHT22;27616;51.420;6.788;2023-03-19T16:24:40;14.60;99.90
41928;DHT22;27616;51.420;6.788;2023-03-19T16:27:14;14.50;99.90
41928;DHT22;27616;51.420;6.788;2023-03-19T16:29:46;14.40;99.90
41928;DHT22;27616;51.420;6.788;2023-03-19T16:32:20;14.30;99.90
41928;DHT22;27616;51.420;6.788;2023-03-19T16:34:54;14.30;99.90
41928;DHT22;27616;51.420;6.788;2023-03-19T16:50:10;14.20;99.90
41928;DHT22;27616;51.420;6.788;2023-03-19T16:52:37;14.10;99.90
41928;DHT22;27616;51.420;6.788;2023-03-19T16:55:10;14.10;99.90
41928;DHT22;27616;51.420;6.788;2023-03-19T16:57:40;14.00;99.90
41928;DHT22;27616;51.420;6.788;2023-03-19T17:00:11;14.00;99.90
41928;DHT22;27616;51.420;6.788;2023-03-19T17:02:37;13.90;99.90
41928;DHT22;27616;51.420;6.788;2023-03-19T17:05:12;13.90;99.90
41928;DHT22;27616;51.420;6.788;2023-03-19T17:07:39;13.90;99.90
41928;DHT22;27616;51.420;6.788;2023-03-19T17:10:13;13.90;99.90
41928;DHT22;27616;51.420;6.788;2023-03-19T17:12:40;13.90;99.90
41928;DHT22;27616;51.420;6.788;2023-03-19T17:15:18;13.80;99.90
41928;DHT22;27616;51.420;6.788;2023-03-19T17:17:46;13.80;99.90
41928;DHT22;27616;51.420;6.788;2023-03-19T17:20:19;13.80;99.90
41928;DHT22;27616;51.420;6.788;2023-03-19T17:22:46;13.80;99.90
41928;DHT22;27616;51.420;6.788;2023-03-19T17:25:13;13.80;99.90
41928;DHT22;27616;51.420;6.788;2023-03-19T17:27:39;13.80;99.90
41928;DHT22;27616;51.420;6.788;2023-03-19T17:30:05;13.70;99.90
41928;DHT22;27616;51.420;6.788;2023-03-19T17:32:31;13.70;99.90
41928;DHT22;27616;51.420;6.788;2023-03-19T17:34:57;13.70;99.90
41928;DHT22;27616;51.420;6.788;2023-03-19T17:37:23;13.70;99.90
41928;DHT22;27616;51.420;6.788;2023-03-19T17:39:51;13.60;99.90
41928;DHT22;27616;51.420;6.788;2023-03-19T17:42:22;13.60;99.90
41928;DHT22;27616;51.420;6.788;2023-03-19T17:44:49;13.60;99.90
41928;DHT22;27616;51.420;6.788;2023-03-19T17:47:16;13.60;99.90
41928;DHT22;27616;51.420;6.788;2023-03-19T17:49:43;13.60;99.90
41928;DHT22;27616;51.420;6.788;2023-03-19T17:52:16;13.50;99.90
41928;DHT22;27616;51.420;6.788;2023-03-19T17:54:42;13.50;99.90
41928;DHT22;27616;51.420;6.788;2023-03-19T17:57:13;13.40;99.90
41928;DHT22;27616;51.420;6.788;2023-03-19T17:59:39;13.40;99.90
41928;DHT22;27616;51.420;6.788;2023-03-19T18:02:24;13.40;99.90
41928;DHT22;27616;51.420;6.788;2023-03-19T18:04:51;13.40;99.90
41928;DHT22;27616;51.420;6.788;2023-03-19T18:07:16;13.40;99.90